Latest Weather Observations for Lake Julius

IDQ60801

Issued at 7:35 pm EST Thursday 24 April 2014 (issued every 30 minutes, with the page automatically refreshed every 10 minutes)

About weather observations | Map of weather stations | Latest weather observations for QLD | Other Formats
Station Details ID: 029181 Name: LAKE JULIUS AWS Lat: -20.12 Lon: 139.73 Height: 237.0 m
Data from the previous 72 hours. | See also: Recent months for locations in Queensland
Date/Time
EST
Temp
°C
App
Temp
°C
Dew
Point
Rel
Hum
%
Delta-T
°C
Wind Press
QNH
hPa
Press
MSL
hPa
Rain
since 9 am
mm
Dir
 
Spd
km/h
Gust
km/h
Spd
kts
Gust
kts
24/07:30pm 30.2 30.4 13.0 34 10.3 NE 4 9 2 5 - - -
24/07:00pm 30.7 30.5 13.0 33 10.6 NE 6 11 3 6 - - -
24/06:30pm 31.1 30.6 12.5 32 11.1 E 7 15 4 8 - - -
24/06:00pm 31.5 30.7 11.8 30 11.6 E 7 13 4 7 - - -
24/05:30pm 32.1 30.6 11.8 29 12.0 ESE 11 20 6 11 - - -
24/05:00pm 32.5 30.9 11.6 28 12.4 ESE 11 20 6 11 - - -
24/04:30pm 32.4 30.6 12.1 29 12.1 SE 13 20 7 11 - - -
24/04:00pm 32.8 30.9 11.9 28 12.4 ESE 13 26 7 14 - - -
24/03:30pm 33.3 31.4 10.6 25 13.3 SSE 11 20 6 11 - - -
24/03:00pm 32.5 30.4 11.1 27 12.6 SSE 13 24 7 13 - - -
24/02:30pm 33.2 29.6 10.5 25 13.3 S 20 30 11 16 - - -
24/02:00pm 33.2 30.4 9.9 24 13.5 ESE 15 24 8 13 - - -
24/01:30pm 33.5 31.9 11.4 26 13.1 ESE 11 22 6 12 - - -
24/01:00pm 31.8 28.5 11.0 28 12.2 SSE 19 28 10 15 - - -
24/12:30pm 32.7 30.8 12.9 30 12.0 E 15 26 8 14 - - 0.0
24/12:00pm 31.7 30.1 13.9 34 10.9 E 15 20 8 11 - - 0.0
24/11:30am 30.6 29.9 15.5 40 9.4 ESE 13 22 7 12 - - 0.0
24/11:00am 30.4 30.6 16.8 44 8.6 ESE 11 19 6 10 - - 0.0
24/10:30am 28.8 29.9 17.0 49 7.5 SE 7 15 4 8 - - 0.0
24/10:00am 28.9 30.3 17.7 50 7.2 E 7 13 4 7 - - 0.0
24/09:30am 26.6 28.4 17.4 57 5.8 E 4 9 2 5 - - 0.0
24/09:00am 25.3 27.7 18.0 64 4.6 SW 2 6 1 3 - - 0.0
24/08:30am 24.3 26.7 18.0 68 4.0 S 2 6 1 3 - - 0.0
24/08:00am 24.2 26.7 18.2 69 3.8 S 2 4 1 2 - - 0.0
24/07:30am 23.0 25.5 18.1 74 3.1 S 2 4 1 2 - - 0.0
24/07:00am 23.0 24.8 18.3 75 3.0 S 6 9 3 5 - - 0.0
24/06:30am 23.0 24.9 18.5 76 2.9 S 6 9 3 5 - - 0.0
24/06:00am 22.9 24.7 18.4 76 2.9 SSW 6 11 3 6 - - 0.0
24/05:30am 22.7 24.5 18.7 78 2.5 SSW 7 11 4 6 - - 0.0
24/05:00am 22.8 24.8 18.8 78 2.6 SSW 6 9 3 5 - - 0.0
24/04:30am 22.8 24.8 18.8 78 2.6 S 6 9 3 5 - - 0.0
24/04:00am 22.7 24.5 18.7 78 2.5 SSW 7 11 4 6 - - 0.0
24/03:30am 22.5 24.9 18.7 79 2.4 S 4 6 2 3 - - 0.0
24/03:00am 22.5 25.2 18.7 79 2.4 S 2 4 1 2 - - 0.0
24/02:30am 22.4 25.0 18.4 78 2.5 S 2 4 1 2 - - 0.0
24/02:00am 22.4 24.6 18.4 78 2.5 SE 4 6 2 3 - - 0.0
24/01:30am 22.5 24.4 18.5 78 2.5 SSE 6 9 3 5 - - 0.0
24/01:00am 22.4 24.5 18.2 77 2.7 SE 4 6 2 3 - - 0.0
24/12:30am 22.7 25.3 17.6 73 3.2 CALM 0 0 0 0 - - 0.0
24/12:00am 23.0 25.3 17.7 72 3.3 NNE 2 4 1 2 - - 0.0
 
Date/Time
EST
Temp
°C
App
Temp
°C
Dew
Point
Rel
Hum
%
Delta-T
°C
Wind Press
QNH
hPa
Press
MSL
hPa
Rain
since 9 am
mm
Dir
 
Spd
km/h
Gust
km/h
Spd
kts
Gust
kts
23/11:30pm 23.2 25.5 17.7 71 3.5 ENE 2 4 1 2 - - 0.0
23/11:00pm 23.6 25.1 17.6 69 3.8 NE 6 9 3 5 - - 0.0
23/10:30pm 24.0 24.4 17.3 66 4.2 NE 11 15 6 8 - - 0.0
23/10:00pm 24.3 25.6 17.5 66 4.3 N 7 11 4 6 - - 0.0
23/09:30pm 24.5 26.0 17.5 65 4.4 NNE 6 11 3 6 - - 0.0
23/09:00pm 24.8 25.7 18.3 67 4.1 NNE 11 17 6 9 - - 0.0
23/08:30pm 25.2 26.0 18.2 65 4.5 NNE 11 19 6 10 - - 0.0
23/08:00pm 25.6 26.1 18.3 64 4.7 N 13 20 7 11 - - 0.0
23/07:30pm 25.8 26.0 18.5 64 4.7 NNE 15 22 8 12 - - 0.0
23/07:00pm 26.4 26.2 18.5 62 5.1 NNE 17 24 9 13 - - 0.0
23/06:30pm 27.2 26.9 18.2 58 5.8 NNE 17 30 9 16 - - 0.0
23/06:00pm 27.6 26.2 18.0 55 6.1 NNE 22 37 12 20 - - 0.0
23/05:30pm 29.2 28.1 17.7 50 7.4 N 20 26 11 14 - - 0.0
23/05:00pm 30.3 29.8 17.7 46 8.1 N 17 24 9 13 - - 0.0
23/04:30pm 29.9 29.2 17.4 47 8.0 NNE 17 30 9 16 - - 0.0
23/04:00pm 31.3 31.1 15.7 39 9.8 NE 11 20 6 11 - - 0.0
23/03:30pm 31.3 29.7 14.9 37 10.2 NE 17 28 9 15 - - 0.0
23/03:00pm 32.2 30.9 14.8 35 10.8 N 15 28 8 15 - - 0.0
23/02:30pm 32.5 31.6 15.9 36 10.5 NNE 15 26 8 14 - - 0.0
23/02:00pm 31.3 30.9 16.1 40 9.6 N 13 24 7 13 - - 0.0
23/01:30pm 31.1 30.0 16.3 41 9.3 NNE 17 30 9 16 - - 0.0
23/01:00pm 31.4 31.0 16.2 40 9.6 NNE 13 20 7 11 - - 0.0
23/12:30pm 31.2 29.9 16.8 42 9.2 NNE 19 28 10 15 - - 0.0
23/12:00pm 31.6 32.3 17.1 41 9.3 NE 9 20 5 11 - - 0.0
23/11:30am 30.7 30.5 16.7 43 8.9 NE 13 24 7 13 - - 0.0
23/11:00am 31.7 33.3 18.3 45 8.7 E 7 11 4 6 - - 0.0
23/10:30am 28.0 29.5 18.1 55 6.4 E 7 17 4 9 - - 0.0
23/10:00am 27.8 29.4 19.1 59 5.7 ESE 9 13 5 7 - - 0.0
23/09:30am 26.8 29.4 19.2 63 4.9 ENE 4 9 2 5 - - 0.0
23/09:00am 25.0 27.0 18.7 68 4.0 E 6 11 3 6 - - 0.0
23/08:30am 24.6 27.1 19.0 71 3.6 NE 4 7 2 4 - - 0.0
23/08:00am 23.8 26.3 19.1 75 3.0 ENE 4 7 2 4 - - 0.0
23/07:30am 22.7 25.3 19.3 81 2.2 NNE 4 6 2 3 - - 0.0
23/07:00am 22.1 25.0 19.1 83 1.9 SSE 2 4 1 2 - - 0.0
23/06:30am 22.4 25.7 19.2 82 2.1 CALM 0 0 0 0 - - 0.0
23/06:00am 22.5 25.9 19.3 82 2.1 CALM 0 0 0 0 - - 0.0
23/05:30am 22.6 26.0 19.4 82 2.1 CALM 0 4 0 2 - - 0.0
23/05:00am 22.8 25.8 19.2 80 2.3 E 2 6 1 3 - - 0.0
23/04:30am 23.0 25.5 19.0 78 2.6 ENE 4 9 2 5 - - 0.0
23/04:00am 23.4 25.5 18.9 76 2.9 ENE 6 9 3 5 - - 0.0
23/03:30am 23.7 26.1 18.8 74 3.1 E 4 6 2 3 - - 0.0
23/03:00am 24.0 26.1 18.9 73 3.3 NE 6 9 3 5 - - 0.0
23/02:30am 24.1 26.1 18.7 72 3.5 ENE 6 9 3 5 - - 0.0
23/02:00am 24.2 26.5 18.6 71 3.6 NE 4 7 2 4 - - 0.0
23/01:30am 24.5 27.6 18.7 70 3.7 CALM 0 2 0 1 - - 0.0
23/01:00am 24.9 26.7 18.4 67 4.1 E 6 7 3 4 - - 0.0
23/12:30am 25.4 27.3 18.6 66 4.4 ENE 6 7 3 4 - - 0.0
23/12:00am 25.9 27.8 18.6 64 4.7 NNE 6 7 3 4 - - 0.0
 
Date/Time
EST
Temp
°C
App
Temp
°C
Dew
Point
Rel
Hum
%
Delta-T
°C
Wind Press
QNH
hPa
Press
MSL
hPa
Rain
since 9 am
mm
Dir
 
Spd
km/h
Gust
km/h
Spd
kts
Gust
kts
22/11:30pm 26.2 27.4 18.3 61 5.1 NE 9 15 5 8 - - 0.0
22/11:00pm 26.5 27.4 18.4 61 5.2 NE 11 15 6 8 - - 0.0
22/10:30pm 26.8 27.9 18.1 59 5.6 NNE 9 19 5 10 - - 0.0
22/10:00pm 27.5 27.7 18.5 58 5.8 NE 15 22 8 12 - - 0.0
22/09:30pm 27.9 27.7 18.6 57 6.0 NE 17 24 9 13 - - 0.0
22/09:00pm 28.6 28.1 18.7 55 6.4 NE 19 28 10 15 - - 0.0
22/08:30pm 29.6 29.1 18.7 52 7.1 NE 19 28 10 15 - - 0.0
22/08:00pm 30.9 31.3 17.2 43 8.8 NE 11 17 6 9 - - 0.0
22/07:30pm 31.4 31.5 14.5 35 10.4 ENE 7 9 4 5 - - 0.0
22/07:00pm 31.7 31.4 14.4 35 10.6 ENE 9 13 5 7 - - 0.0
22/06:30pm 32.2 31.9 14.3 33 11.0 ESE 9 15 5 8 - - 0.0
22/06:00pm 32.7 32.5 12.9 30 12.0 ENE 6 11 3 6 - - 0.0
22/05:30pm 33.7 33.2 10.9 25 13.4 NNW 4 7 2 4 - - 0.0
22/05:00pm 33.9 32.8 10.5 24 13.7 ESE 7 13 4 7 - - 0.0
22/04:30pm 34.3 34.0 11.4 25 13.6 S 4 9 2 5 - - 0.0
22/04:00pm 34.9 34.2 12.0 25 13.8 SSE 7 11 4 6 - - 0.0
22/03:30pm 34.1 33.0 11.9 26 13.3 S 9 15 5 8 - - 0.0
22/03:00pm 33.3 32.7 12.3 28 12.6 SSW 7 15 4 8 - - 0.0
22/02:30pm 33.0 32.5 12.6 29 12.3 SSE 7 17 4 9 - - 0.0
22/02:00pm 33.5 33.7 13.0 29 12.4 S 4 9 2 5 - - 0.0
22/01:30pm 31.8 31.6 13.5 32 11.1 ENE 7 11 4 6 - - 0.0
22/01:00pm 31.2 31.0 13.0 33 10.9 ENE 6 13 3 7 - - 0.0
22/12:30pm 31.9 31.9 14.1 34 10.9 SSE 7 17 4 9 - - 0.0
22/12:00pm 31.6 31.6 14.3 35 10.6 NNE 7 17 4 9 - - 0.0
22/11:30am 30.6 30.3 14.3 37 10.0 ESE 9 17 5 9 - - 0.0
22/11:00am 30.1 29.5 14.6 39 9.5 NE 11 22 6 12 - - 0.0
22/10:30am 29.7 29.9 14.3 39 9.4 ESE 6 13 3 7 - - 0.0
22/10:00am 29.0 28.8 13.6 38 9.3 ENE 7 17 4 9 - - 0.0
22/09:30am 28.1 27.4 13.2 39 8.9 ESE 9 17 5 9 - - 0.0
22/09:00am 27.0 26.3 10.2 35 9.5 ESE 4 9 2 5 - - 0.0
22/08:30am 25.0 24.7 10.1 39 8.3 SSW 2 6 1 3 - - 0.0
22/08:00am 22.5 22.8 10.9 48 6.5 CALM 0 0 0 0 - - 0.0
22/07:30am 20.1 19.7 9.9 52 5.5 WSW 2 6 1 3 - - 0.0
22/07:00am 20.0 19.9 9.6 51 5.6 CALM 0 0 0 0 - - 0.0
22/06:30am 20.0 20.2 10.4 54 5.2 CALM 0 0 0 0 - - 0.0
22/06:00am 20.0 20.2 10.7 55 5.1 CALM 0 0 0 0 - - 0.0
22/05:30am 20.0 20.1 10.1 53 5.4 CALM 0 0 0 0 - - 0.0
22/05:00am 20.8 21.1 10.9 53 5.5 CALM 0 0 0 0 - - 0.0
22/04:30am 20.6 20.8 10.7 53 5.5 CALM 0 0 0 0 - - 0.0
22/04:00am 20.6 20.7 10.1 51 5.7 CALM 0 0 0 0 - - 0.0
22/03:30am 20.8 20.8 9.7 49 6.0 CALM 0 0 0 0 - - 0.0
22/03:00am 21.9 21.5 11.0 50 6.1 SSW 4 4 2 2 - - 0.0
22/02:30am 23.1 22.8 11.5 48 6.6 SW 4 6 2 3 - - 0.0
22/02:00am 22.7 22.4 12.6 53 5.8 SSW 6 7 3 4 - - 0.0
22/01:30am 22.4 22.1 13.2 56 5.3 SSW 7 7 4 4 - - 0.0
22/01:00am 22.6 22.4 13.1 55 5.5 SSW 6 6 3 3 - - 0.0
22/12:30am 23.4 23.8 13.8 54 5.7 SW 4 7 2 4 - - 0.0
22/12:00am 23.2 23.3 12.8 52 6.0 SSW 4 4 2 2 - - 0.0
 
Date/Time
EST
Temp
°C
App
Temp
°C
Dew
Point
Rel
Hum
%
Delta-T
°C
Wind Press
QNH
hPa
Press
MSL
hPa
Rain
since 9 am
mm
Dir
 
Spd
km/h
Gust
km/h
Spd
kts
Gust
kts
21/11:30pm 23.5 23.0 12.2 49 6.5 SSW 6 7 3 4 - - 0.0
21/11:00pm 23.9 23.7 9.1 39 8.1 CALM 0 6 0 3 - - 0.0
21/10:30pm 24.6 24.6 12.5 46 7.0 SSW 4 6 2 3 - - 0.0
21/10:00pm 25.0 24.4 10.5 40 8.2 S 4 6 2 3 - - 0.0
21/09:30pm 26.5 27.4 12.9 43 8.0 CALM 0 0 0 0 - - 0.0
21/09:00pm 26.9 26.5 9.7 34 9.6 S 2 6 1 3 - - 0.0
21/08:30pm 27.7 26.9 8.1 29 10.7 ENE 2 4 1 2 - - 0.0
21/08:00pm 28.4 27.8 7.6 27 11.3 CALM 0 0 0 0 - - 0.0

Other Formats:

Comma delimited format used in spreadsheet applications
http://www.bom.gov.au/fwo/IDQ60801/IDQ60801.94348.axf

JavaScript Object Notation format (JSON) in row-major order
http://www.bom.gov.au/fwo/IDQ60801/IDQ60801.94348.json